Time;durP1;ratioP1;P1;durP2;ratioP2;P2;SDS_P1;SDS_P2;PMS_P1;PMS_P2;Temp;Humidity;BMP_temperature;BMP_pressure;BME280_temperature;BME280_humidity;BME280_pressure;Samples;Min_cycle;Max_cycle;Signal;HPM_P1;HPM_P2
2023/04/09 00:02:26;;;;;;;81.30;55.42;;;5.00;99.90;;;;;;4973546;28;20023;-73
2023/04/09 00:04:52;;;;;;;88.40;56.88;;;5.00;99.90;;;;;;4973715;28;20023;-73
2023/04/09 00:07:17;;;;;;;75.63;52.15;;;5.00;99.90;;;;;;4969247;28;20386;-72
2023/04/09 00:09:43;;;;;;;75.95;50.38;;;5.00;99.90;;;;;;4973427;28;20488;-74
2023/04/09 00:12:09;;;;;;;83.13;53.03;;;4.90;99.90;;;;;;4970546;28;20034;-73
2023/04/09 00:14:35;;;;;;;81.72;55.35;;;4.80;99.90;;;;;;4959730;28;20035;-73
2023/04/09 00:17:01;;;;;;;83.22;55.50;;;4.70;99.90;;;;;;4972645;28;20030;-72
2023/04/09 00:19:27;;;;;;;85.57;53.40;;;4.60;99.90;;;;;;4972302;28;20125;-73
2023/04/09 00:21:52;;;;;;;78.18;52.80;;;4.60;99.90;;;;;;4973444;28;20085;-74
2023/04/09 00:24:18;;;;;;;84.97;57.92;;;4.60;99.90;;;;;;4973109;28;20023;-73
2023/04/09 00:26:44;;;;;;;85.68;57.25;;;4.60;99.90;;;;;;4973406;28;20402;-73
2023/04/09 00:29:10;;;;;;;85.85;58.92;;;4.60;99.90;;;;;;4972900;28;20034;-73
2023/04/09 00:31:36;;;;;;;85.82;59.88;;;4.50;99.90;;;;;;4972643;28;20922;-73
2023/04/09 00:34:02;;;;;;;98.43;63.00;;;4.50;99.90;;;;;;4955733;28;20039;-74
2023/04/09 00:36:28;;;;;;;87.55;61.20;;;4.60;99.90;;;;;;4971588;28;20093;-74
2023/04/09 00:38:54;;;;;;;90.88;62.17;;;4.60;99.90;;;;;;4971437;28;20486;-74
2023/04/09 00:41:20;;;;;;;89.25;63.00;;;4.50;99.90;;;;;;4973387;28;20019;-74
2023/04/09 00:43:46;;;;;;;92.75;64.13;;;4.60;99.90;;;;;;4955480;28;20046;-72
2023/04/09 00:46:12;;;;;;;94.35;64.72;;;4.60;99.90;;;;;;4973061;28;20050;-74
2023/04/09 00:48:39;;;;;;;99.60;68.63;;;4.60;99.90;;;;;;4971994;28;20106;-72
2023/04/09 00:51:05;;;;;;;94.05;65.95;;;4.70;99.90;;;;;;4973089;28;20031;-73
2023/04/09 00:53:31;;;;;;;109.25;72.63;;;4.70;99.90;;;;;;4939520;28;20043;-73
2023/04/09 00:55:57;;;;;;;113.57;76.90;;;4.80;99.90;;;;;;4971185;28;20546;-73
2023/04/09 00:58:24;;;;;;;111.28;72.70;;;4.80;99.90;;;;;;4972853;28;20046;-72
2023/04/09 01:00:50;;;;;;;113.65;81.45;;;4.70;99.90;;;;;;4972939;28;20375;-72
2023/04/09 01:03:16;;;;;;;123.32;80.10;;;4.70;99.90;;;;;;4972842;28;20554;-75
2023/04/09 01:06:10;;;;;;;125.03;83.20;;;4.60;99.90;;;;;;4972816;28;20029;-73
2023/04/09 01:09:14;;;;;;;126.53;85.57;;;4.60;99.90;;;;;;4963818;28;20030;-73
2023/04/09 01:12:11;;;;;;;114.38;76.38;;;4.60;99.90;;;;;;4972728;28;20031;-73
2023/04/09 01:15:07;;;;;;;113.35;74.80;;;4.60;99.90;;;;;;4955302;28;20063;-71
2023/04/09 01:17:45;;;;;;;99.55;68.80;;;4.60;99.90;;;;;;4971010;28;20030;-73
2023/04/09 01:20:21;;;;;;;98.18;71.10;;;4.50;99.90;;;;;;4976514;28;20109;-73
2023/04/09 01:23:01;;;;;;;95.80;69.00;;;4.40;99.90;;;;;;4946796;28;20486;-73
2023/04/09 01:25:47;;;;;;;92.25;62.90;;;4.50;99.90;;;;;;4976381;28;20031;-72
2023/04/09 01:28:16;;;;;;;98.10;68.05;;;4.50;99.90;;;;;;4975140;28;20039;-74
2023/04/09 01:30:52;;;;;;;90.07;64.85;;;4.50;99.90;;;;;;4958653;28;20118;-73
2023/04/09 01:33:20;;;;;;;103.30;66.18;;;4.50;99.90;;;;;;4975207;28;20041;-73
2023/04/09 01:35:47;;;;;;;87.05;61.60;;;4.40;99.90;;;;;;4958673;28;20474;-73
2023/04/09 01:38:15;;;;;;;86.72;57.70;;;4.50;99.90;;;;;;4958253;28;20047;-72
2023/04/09 01:40:42;;;;;;;95.50;62.10;;;4.50;99.90;;;;;;4974688;28;20081;-72
2023/04/09 01:43:09;;;;;;;90.25;57.85;;;4.60;99.90;;;;;;4958184;28;20054;-72
2023/04/09 01:45:35;;;;;;;78.65;54.65;;;4.70;99.90;;;;;;4975970;28;20042;-72
2023/04/09 01:48:02;;;;;;;83.15;56.55;;;4.80;99.90;;;;;;4975872;28;20089;-74
2023/04/09 01:50:29;;;;;;;86.40;55.95;;;4.80;99.90;;;;;;4976238;28;20062;-73
2023/04/09 01:52:55;;;;;;;77.53;53.75;;;4.90;99.90;;;;;;4975837;28;20035;-72
2023/04/09 01:55:21;;;;;;;76.22;52.38;;;4.80;99.90;;;;;;4974488;28;20031;-73
2023/04/09 01:57:46;;;;;;;80.13;54.50;;;4.90;99.90;;;;;;4955522;28;20139;-72
2023/04/09 02:00:13;;;;;;;75.68;51.97;;;4.80;99.90;;;;;;4953662;28;20023;-71
2023/04/09 02:02:54;;;;;;;76.50;53.80;;;4.80;99.90;;;;;;4975297;28;20483;-73
2023/04/09 02:05:25;;;;;;;74.57;49.90;;;4.80;99.90;;;;;;4974116;28;20117;-73
2023/04/09 02:07:57;;;;;;;76.70;54.03;;;4.80;99.90;;;;;;4972578;28;20045;-72
2023/04/09 02:10:26;;;;;;;77.75;51.33;;;4.80;99.90;;;;;;4975596;28;20042;-74
2023/04/09 02:12:52;;;;;;;79.30;54.85;;;4.80;99.90;;;;;;4975541;28;20011;-73
2023/04/09 02:15:22;;;;;;;76.20;53.72;;;4.80;99.90;;;;;;4958254;28;20030;-73
2023/04/09 02:17:47;;;;;;;103.65;70.70;;;4.70;99.90;;;;;;4961349;28;20015;-73
2023/04/09 02:20:18;;;;;;;82.40;59.22;;;4.70;99.90;;;;;;4957825;28;20505;-74
2023/04/09 02:22:47;;;;;;;90.95;60.75;;;4.70;99.90;;;;;;4969773;28;20023;-74
2023/04/09 02:25:13;;;;;;;98.60;70.75;;;4.70;99.90;;;;;;4949641;28;20035;-73
2023/04/09 02:27:40;;;;;;;104.03;72.70;;;4.70;99.90;;;;;;4973739;28;20034;-73
2023/04/09 02:30:06;;;;;;;110.80;72.80;;;4.70;99.90;;;;;;4973896;28;20106;-73
2023/04/09 02:32:32;;;;;;;102.18;69.47;;;4.70;99.90;;;;;;4975305;28;20425;-73
2023/04/09 02:34:58;;;;;;;105.00;68.97;;;4.60;99.90;;;;;;4975110;28;20042;-74
2023/04/09 02:37:23;;;;;;;100.50;69.53;;;4.60;99.90;;;;;;4973916;28;20023;-74
2023/04/09 02:39:49;;;;;;;89.28;66.38;;;4.60;99.90;;;;;;4973836;28;20038;-73
2023/04/09 02:42:15;;;;;;;92.90;64.00;;;4.50;99.90;;;;;;4957807;28;20026;-74
2023/04/09 02:44:43;;;;;;;88.00;62.38;;;4.50;99.90;;;;;;4970060;28;20507;-73
2023/04/09 02:47:10;;;;;;;87.07;56.72;;;4.60;99.90;;;;;;4955709;29;20031;-74
2023/04/09 02:49:37;;;;;;;91.45;60.15;;;4.60;99.90;;;;;;4970177;28;20039;-72
2023/04/09 02:52:03;;;;;;;94.90;64.45;;;4.60;99.90;;;;;;4955574;29;20415;-72
2023/04/09 02:54:28;;;;;;;88.85;62.20;;;4.60;99.90;;;;;;4983139;28;20703;-72
2023/04/09 02:56:55;;;;;;;95.75;66.45;;;4.60;99.90;;;;;;4954049;28;20384;-72
2023/04/09 02:59:21;;;;;;;93.75;65.47;;;4.50;99.90;;;;;;4952632;28;20100;-73
2023/04/09 03:01:47;;;;;;;84.80;57.40;;;4.40;99.90;;;;;;4969957;28;20031;-70
2023/04/09 03:04:13;;;;;;;78.35;53.83;;;4.40;99.90;;;;;;4969923;28;20034;-72
2023/04/09 03:06:39;;;;;;;81.57;54.03;;;4.30;99.90;;;;;;4964300;28;20020;-72
2023/04/09 03:09:04;;;;;;;82.68;54.92;;;4.20;99.90;;;;;;4964380;28;20042;-72
2023/04/09 03:11:30;;;;;;;84.63;56.47;;;4.20;99.90;;;;;;4953504;28;20034;-72
2023/04/09 03:13:56;;;;;;;78.60;54.80;;;4.00;99.90;;;;;;4953763;29;20062;-71
2023/04/09 03:16:24;;;;;;;85.47;54.15;;;3.90;99.90;;;;;;4955145;28;20380;-73
2023/04/09 03:18:50;;;;;;;82.13;55.90;;;4.00;99.90;;;;;;4954635;29;20111;-72
2023/04/09 03:21:17;;;;;;;79.95;54.22;;;3.90;99.90;;;;;;4954925;28;20395;-72
2023/04/09 03:23:47;;;;;;;77.43;53.35;;;3.90;99.90;;;;;;4954575;28;20031;-72
2023/04/09 03:26:12;;;;;;;74.25;51.15;;;4.00;99.90;;;;;;4969864;28;20559;-70
2023/04/09 03:28:45;;;;;;;78.03;52.17;;;4.00;99.90;;;;;;4941721;29;20066;-72
2023/04/09 03:31:12;;;;;;;78.88;52.10;;;3.90;99.90;;;;;;4948417;29;20534;-72
2023/04/09 03:33:39;;;;;;;73.63;50.13;;;3.90;99.90;;;;;;4963127;28;20027;-72
2023/04/09 03:36:06;;;;;;;71.03;48.42;;;3.90;99.90;;;;;;4941029;29;20031;-70
2023/04/09 03:38:43;;;;;;;66.97;49.47;;;3.90;99.90;;;;;;4937523;29;20042;-72
2023/04/09 03:41:21;;;;;;;66.60;47.88;;;3.90;99.90;;;;;;4942887;29;20050;-72
2023/04/09 03:43:47;;;;;;;70.80;47.38;;;3.90;99.90;;;;;;4955945;28;20085;-72
2023/04/09 03:46:17;;;;;;;74.75;51.60;;;3.90;99.90;;;;;;4955975;28;20035;-72
2023/04/09 03:48:46;;;;;;;69.28;48.65;;;3.90;99.90;;;;;;4944536;28;20530;-72
2023/04/09 03:51:13;;;;;;;69.15;48.30;;;3.80;99.90;;;;;;4954065;28;20031;-72
2023/04/09 03:53:44;;;;;;;72.28;49.72;;;3.90;99.90;;;;;;4955995;28;20453;-72
2023/04/09 03:56:10;;;;;;;72.28;48.03;;;3.90;99.90;;;;;;4956065;28;20022;-74
2023/04/09 03:58:37;;;;;;;68.63;47.55;;;3.90;99.90;;;;;;4954270;28;20038;-73
2023/04/09 04:01:03;;;;;;;69.90;50.58;;;3.90;99.90;;;;;;4972991;28;20030;-73
2023/04/09 04:03:36;;;;;;;70.10;49.37;;;3.90;99.90;;;;;;4956201;28;20031;-72
2023/04/09 04:06:26;;;;;;;76.45;52.00;;;3.90;99.90;;;;;;4946048;28;20438;-73
2023/04/09 04:09:13;;;;;;;76.28;52.25;;;3.80;99.90;;;;;;4953068;28;20031;-72
2023/04/09 04:12:02;;;;;;;85.40;57.30;;;3.90;99.90;;;;;;4968521;28;20033;-73
2023/04/09 04:14:41;;;;;;;78.80;53.83;;;3.80;99.90;;;;;;4955438;28;20038;-72
2023/04/09 04:17:17;;;;;;;82.18;57.25;;;3.80;99.90;;;;;;4955640;28;20073;-72
2023/04/09 04:19:43;;;;;;;81.20;52.33;;;3.70;99.90;;;;;;4968898;28;20047;-74
2023/04/09 04:22:09;;;;;;;73.68;51.00;;;3.70;99.90;;;;;;4954683;28;20033;-72
2023/04/09 04:24:40;;;;;;;72.03;49.22;;;3.80;99.90;;;;;;4970421;28;20039;-72
2023/04/09 04:27:07;;;;;;;70.63;47.10;;;3.80;99.90;;;;;;4955618;28;20057;-72
2023/04/09 04:29:36;;;;;;;71.40;48.65;;;3.90;99.90;;;;;;4955833;28;20046;-73
2023/04/09 04:32:03;;;;;;;63.78;42.92;;;4.00;99.90;;;;;;4970686;28;20132;-72
2023/04/09 04:34:34;;;;;;;62.25;44.90;;;4.20;99.90;;;;;;4964396;28;20033;-73
2023/04/09 04:37:08;;;;;;;71.28;46.20;;;4.30;99.90;;;;;;4955900;28;20030;-72
2023/04/09 04:39:34;;;;;;;65.47;48.20;;;4.40;99.90;;;;;;4970368;28;20030;-71
2023/04/09 04:42:04;;;;;;;73.25;50.60;;;4.70;99.90;;;;;;4960945;28;20035;-72
2023/04/09 04:44:29;;;;;;;69.35;50.10;;;4.90;99.90;;;;;;4953720;28;20058;-71
2023/04/09 04:47:04;;;;;;;77.78;49.25;;;5.20;99.90;;;;;;4949611;28;20118;-72
2023/04/09 04:49:30;;;;;;;62.50;45.95;;;5.40;99.90;;;;;;4955287;28;20062;-72
2023/04/09 04:51:56;;;;;;;62.70;44.58;;;5.70;99.90;;;;;;4948528;28;20027;-72
2023/04/09 04:54:22;;;;;;;64.15;44.90;;;6.00;99.90;;;;;;4976952;28;20045;-73
2023/04/09 04:56:52;;;;;;;62.08;44.78;;;6.30;99.90;;;;;;4958905;28;20067;-73
2023/04/09 04:59:48;;;;;;;58.00;40.70;;;6.60;99.90;;;;;;4897744;29;20048;-73
2023/04/09 05:02:16;;;;;;;54.55;38.55;;;6.90;99.90;;;;;;4882338;29;20460;-73
2023/04/09 05:05:14;;;;;;;59.97;41.05;;;6.90;99.90;;;;;;4878639;29;20064;-73
2023/04/09 05:07:47;;;;;;;58.78;39.80;;;7.10;99.90;;;;;;4879953;29;20037;-73
2023/04/09 05:10:13;;;;;;;55.58;39.47;;;7.60;99.90;;;;;;4881917;29;20033;-74
2023/04/09 05:12:41;;;;;;;54.53;40.90;;;7.90;99.90;;;;;;4881889;29;20039;-74
2023/04/09 05:15:09;;;;;;;58.40;39.85;;;8.20;99.90;;;;;;4882463;29;20503;-75
2023/04/09 05:17:37;;;;;;;55.47;41.75;;;8.50;99.90;;;;;;4878194;29;20040;-72
2023/04/09 05:20:05;;;;;;;58.97;40.47;;;8.60;99.90;;;;;;4897072;29;20157;-73
2023/04/09 05:22:44;;;;;;;64.25;42.95;;;8.30;99.90;;;;;;4882245;29;20040;-73
2023/04/09 05:25:10;;;;;;;60.13;41.72;;;7.90;99.90;;;;;;4882446;29;20025;-73
2023/04/09 05:27:38;;;;;;;60.40;40.05;;;7.60;99.90;;;;;;4879507;29;20017;-74
2023/04/09 05:30:05;;;;;;;60.75;43.45;;;7.60;99.90;;;;;;4896442;29;20036;-73
2023/04/09 05:32:31;;;;;;;66.47;46.05;;;7.70;99.90;;;;;;4897694;29;20424;-73
2023/04/09 05:34:57;;;;;;;64.38;43.80;;;7.70;99.90;;;;;;4871951;29;20037;-73
2023/04/09 05:37:25;;;;;;;66.00;45.70;;;7.80;99.90;;;;;;4975334;28;20031;-72
2023/04/09 05:39:52;;;;;;;66.53;46.30;;;7.70;99.90;;;;;;4957604;28;20037;-72
2023/04/09 05:42:18;;;;;;;72.50;50.03;;;7.70;99.90;;;;;;4958256;28;20027;-72
2023/04/09 05:44:51;;;;;;;60.50;41.83;;;7.90;99.90;;;;;;4973769;28;20062;-73
2023/04/09 05:47:19;;;;;;;60.15;43.67;;;7.80;99.90;;;;;;4971192;28;20019;-72
2023/04/09 05:49:59;;;;;;;58.88;43.15;;;7.50;99.90;;;;;;4942262;29;20035;-73
2023/04/09 05:52:27;;;;;;;62.45;43.28;;;7.40;99.90;;;;;;4954684;28;20035;-73
2023/04/09 05:54:54;;;;;;;55.65;40.60;;;7.40;99.90;;;;;;4955550;28;20110;-72
2023/04/09 05:57:26;;;;;;;58.85;42.35;;;7.30;99.90;;;;;;4958501;28;20023;-73
2023/04/09 05:59:57;;;;;;;61.03;42.70;;;7.60;99.90;;;;;;4957701;28;20422;-73
2023/04/09 06:02:24;;;;;;;58.80;39.97;;;7.50;99.90;;;;;;4950937;29;20039;-73
2023/04/09 06:04:50;;;;;;;56.72;40.28;;;7.50;99.90;;;;;;4956328;28;20094;-73
2023/04/09 06:07:16;;;;;;;57.90;38.22;;;7.20;99.90;;;;;;4975842;28;20490;-73
2023/04/09 06:09:45;;;;;;;57.35;40.38;;;7.30;99.90;;;;;;4945069;28;20431;-73
2023/04/09 06:12:12;;;;;;;64.97;45.55;;;7.40;99.90;;;;;;4974276;28;20078;-72
2023/04/09 06:14:38;;;;;;;67.00;48.42;;;7.40;99.90;;;;;;4957918;28;20077;-73
2023/04/09 06:17:05;;;;;;;68.97;50.75;;;7.60;99.90;;;;;;4957558;28;20035;-72
2023/04/09 06:19:31;;;;;;;65.15;48.70;;;7.80;99.90;;;;;;4956263;29;20072;-71
2023/04/09 06:21:57;;;;;;;75.43;50.60;;;8.10;99.90;;;;;;4962743;28;20470;-72
2023/04/09 06:24:23;;;;;;;74.05;53.78;;;8.40;99.90;;;;;;4975408;28;20038;-73
2023/04/09 06:26:49;;;;;;;69.05;48.17;;;8.60;99.90;;;;;;4975030;28;20022;-72
2023/04/09 06:29:14;;;;;;;69.93;51.33;;;8.80;99.90;;;;;;4975247;28;20031;-72
2023/04/09 06:31:40;;;;;;;67.65;49.67;;;9.00;99.90;;;;;;4957592;28;20038;-72
2023/04/09 06:34:06;;;;;;;68.35;48.75;;;9.10;99.90;;;;;;4975442;28;20027;-73
2023/04/09 06:36:33;;;;;;;68.28;48.80;;;9.10;99.90;;;;;;4962066;28;20104;-73
2023/04/09 06:38:59;;;;;;;56.75;42.40;;;9.20;99.90;;;;;;4975008;28;20037;-74
2023/04/09 06:41:25;;;;;;;59.20;41.63;;;9.30;99.90;;;;;;4975235;28;20039;-71
2023/04/09 06:43:51;;;;;;;54.00;38.80;;;9.30;99.90;;;;;;4974668;28;20047;-72
2023/04/09 06:46:19;;;;;;;50.47;34.95;;;9.40;99.90;;;;;;4960081;28;20019;-71
2023/04/09 06:48:46;;;;;;;57.17;40.20;;;9.10;99.90;;;;;;4974593;28;20334;-72
2023/04/09 06:51:12;;;;;;;55.08;41.15;;;9.40;99.90;;;;;;4975122;28;20027;-74
2023/04/09 06:53:38;;;;;;;54.25;37.88;;;9.70;99.90;;;;;;4956874;28;20455;-72
2023/04/09 06:56:05;;;;;;;50.53;37.97;;;10.00;99.90;;;;;;4968520;28;20015;-75
2023/04/09 06:58:30;;;;;;;53.67;37.83;;;10.20;99.90;;;;;;4968210;28;20486;-76
2023/04/09 07:00:56;;;;;;;55.60;40.35;;;10.40;99.90;;;;;;4955689;29;20081;-74
2023/04/09 07:03:22;;;;;;;57.28;39.78;;;10.60;99.90;;;;;;4968079;28;20391;-73
2023/04/09 07:05:48;;;;;;;52.13;37.67;;;10.70;99.90;;;;;;4965309;28;20106;-73
2023/04/09 07:08:14;;;;;;;52.40;38.17;;;10.90;99.90;;;;;;4983923;28;20543;-75
2023/04/09 07:10:40;;;;;;;56.80;38.28;;;11.00;99.90;;;;;;4978995;28;20058;-75
2023/04/09 07:13:06;;;;;;;53.15;38.75;;;11.30;99.90;;;;;;4974541;28;20463;-73
2023/04/09 07:15:32;;;;;;;39.58;28.50;;;11.70;99.90;;;;;;4973751;28;20034;-73
2023/04/09 07:17:58;;;;;;;43.72;32.53;;;11.50;99.90;;;;;;4974178;28;20023;-74
2023/04/09 07:20:24;;;;;;;45.97;32.63;;;10.90;99.90;;;;;;4974373;28;20035;-74
2023/04/09 07:22:50;;;;;;;49.97;36.30;;;10.70;99.90;;;;;;4974436;28;20026;-74
2023/04/09 07:25:16;;;;;;;49.10;33.90;;;10.90;99.90;;;;;;4974176;28;20055;-74
2023/04/09 07:27:42;;;;;;;52.95;37.45;;;11.30;99.90;;;;;;4974163;28;20089;-75
2023/04/09 07:30:09;;;;;;;50.83;37.08;;;11.10;99.90;;;;;;4974007;28;20116;-77
2023/04/09 07:32:36;;;;;;;57.95;40.15;;;10.80;99.90;;;;;;4973934;28;20085;-73
2023/04/09 07:35:05;;;;;;;49.05;37.40;;;10.90;99.90;;;;;;4974360;28;20019;-76
2023/04/09 07:37:31;;;;;;;53.58;39.15;;;10.50;99.90;;;;;;4961582;28;20039;-77
2023/04/09 07:39:57;;;;;;;49.80;35.42;;;11.00;99.90;;;;;;4973924;28;20057;-74
2023/04/09 07:42:23;;;;;;;44.03;30.73;;;11.20;99.90;;;;;;4973875;28;20037;-76
2023/04/09 07:44:48;;;;;;;50.22;36.33;;;11.00;99.90;;;;;;4973668;28;20066;-74
2023/04/09 07:47:15;;;;;;;44.42;30.15;;;11.50;99.90;;;;;;4973724;28;20026;-74
2023/04/09 07:49:40;;;;;;;45.10;32.97;;;11.50;99.90;;;;;;4973480;28;20031;-75
2023/04/09 07:52:06;;;;;;;49.38;35.80;;;11.80;99.90;;;;;;4973844;28;20049;-75
2023/04/09 07:54:33;;;;;;;49.70;37.83;;;11.90;99.90;;;;;;4973600;28;20023;-75
2023/04/09 07:57:00;;;;;;;54.45;38.65;;;12.10;99.90;;;;;;4973824;28;20026;-75
2023/04/09 07:59:26;;;;;;;47.90;35.55;;;12.20;99.90;;;;;;4973296;28;20088;-75
2023/04/09 08:01:52;;;;;;;52.08;37.40;;;11.60;99.90;;;;;;4973296;28;20046;-75
2023/04/09 08:04:18;;;;;;;45.08;31.25;;;11.90;99.90;;;;;;4973549;28;20515;-76
2023/04/09 08:06:48;;;;;;;49.22;34.60;;;12.10;99.90;;;;;;4973889;28;20041;-75
2023/04/09 08:09:24;;;;;;;48.97;34.85;;;12.20;99.90;;;;;;4973324;28;20501;-74
2023/04/09 08:11:50;;;;;;;44.40;34.45;;;12.00;99.90;;;;;;4973730;28;20031;-75
2023/04/09 08:14:17;;;;;;;46.17;33.25;;;12.20;99.90;;;;;;4973317;28;20058;-75
2023/04/09 08:16:45;;;;;;;48.47;33.75;;;12.30;99.90;;;;;;4973428;28;20031;-75
2023/04/09 08:19:12;;;;;;;51.92;34.60;;;12.50;99.90;;;;;;4973245;28;20117;-77
2023/04/09 08:21:41;;;;;;;46.33;33.45;;;12.40;99.90;;;;;;4971853;28;20054;-75
2023/04/09 08:24:10;;;;;;;43.95;31.77;;;12.60;99.90;;;;;;4973348;28;20484;-76
2023/04/09 08:26:40;;;;;;;47.03;30.95;;;12.40;99.90;;;;;;4972186;28;20510;-73
2023/04/09 08:29:08;;;;;;;42.78;31.20;;;12.40;99.90;;;;;;4972993;28;20121;-73
2023/04/09 08:31:35;;;;;;;36.30;28.08;;;12.30;99.90;;;;;;4972992;28;20065;-72
2023/04/09 08:34:01;;;;;;;38.00;27.80;;;12.40;99.90;;;;;;4973262;28;20035;-75
2023/04/09 08:36:27;;;;;;;39.78;29.10;;;12.40;99.90;;;;;;4973440;28;20097;-74
2023/04/09 08:38:54;;;;;;;43.85;29.88;;;12.30;99.90;;;;;;4973068;28;20077;-74
2023/04/09 08:41:23;;;;;;;39.70;29.05;;;12.60;99.90;;;;;;4973506;28;20356;-75
2023/04/09 08:43:50;;;;;;;39.05;29.17;;;12.20;99.90;;;;;;4972748;28;20046;-73
2023/04/09 08:46:20;;;;;;;38.65;28.00;;;12.70;99.90;;;;;;4973312;28;20063;-73
2023/04/09 08:48:48;;;;;;;42.67;28.63;;;13.10;99.90;;;;;;4972850;28;20043;-76
2023/04/09 08:51:21;;;;;;;42.28;29.25;;;13.10;99.90;;;;;;4972882;28;20030;-75
2023/04/09 08:54:07;;;;;;;38.88;29.00;;;12.80;99.90;;;;;;4973353;28;20045;-73
2023/04/09 08:56:33;;;;;;;38.60;28.13;;;13.20;99.90;;;;;;4972824;28;20023;-75
2023/04/09 08:58:59;;;;;;;41.20;29.77;;;13.20;99.90;;;;;;4973213;28;20089;-75
2023/04/09 09:01:29;;;;;;;37.20;27.63;;;12.30;99.90;;;;;;4972271;28;20517;-74
2023/04/09 09:03:56;;;;;;;37.55;25.23;;;12.70;99.90;;;;;;4955522;28;20081;-75
2023/04/09 09:06:24;;;;;;;39.35;27.00;;;13.10;99.90;;;;;;4972911;28;20545;-74
2023/04/09 09:09:04;;;;;;;37.83;26.73;;;13.30;99.90;;;;;;4972826;28;20065;-73
2023/04/09 09:11:31;;;;;;;36.35;26.58;;;13.70;99.90;;;;;;4972996;28;20026;-75
2023/04/09 09:14:17;;;;;;;33.33;24.52;;;12.90;99.90;;;;;;4972606;28;20059;-73
2023/04/09 09:17:04;;;;;;;30.35;22.88;;;12.30;99.90;;;;;;4972657;28;20027;-74
2023/04/09 09:19:35;;;;;;;35.25;24.23;;;12.20;99.90;;;;;;4960028;28;20050;-75
2023/04/09 09:22:02;;;;;;;34.97;25.35;;;12.90;99.90;;;;;;4972760;28;20086;-74
2023/04/09 09:24:29;;;;;;;29.80;22.30;;;11.80;99.90;;;;;;4972593;28;20091;-75
2023/04/09 09:26:58;;;;;;;29.83;22.13;;;12.30;99.90;;;;;;4972555;28;20038;-74
2023/04/09 09:29:24;;;;;;;35.00;24.50;;;12.30;99.90;;;;;;4972670;28;20027;-75
2023/04/09 09:31:52;;;;;;;28.38;19.48;;;12.60;99.90;;;;;;4972515;28;20031;-75
2023/04/09 09:34:20;;;;;;;23.95;17.48;;;12.30;99.70;;;;;;4972533;28;20023;-73
2023/04/09 09:36:47;;;;;;;24.30;18.23;;;12.10;99.80;;;;;;4972679;28;20034;-75
2023/04/09 09:39:16;;;;;;;27.73;18.95;;;11.80;98.20;;;;;;4974123;28;20041;-75
2023/04/09 09:41:43;;;;;;;26.58;17.58;;;12.40;99.60;;;;;;4976112;28;20394;-75
2023/04/09 09:44:10;;;;;;;26.38;18.73;;;12.30;97.60;;;;;;4974602;28;20145;-74
2023/04/09 09:46:40;;;;;;;25.38;16.23;;;12.70;98.30;;;;;;4975920;28;20035;-74
2023/04/09 09:49:06;;;;;;;24.83;17.13;;;12.90;97.60;;;;;;4976561;28;20066;-74
2023/04/09 09:51:35;;;;;;;21.95;16.17;;;12.60;97.10;;;;;;4975941;28;20031;-74
2023/04/09 09:54:02;;;;;;;30.27;18.42;;;12.30;96.50;;;;;;4975908;28;20023;-74
2023/04/09 09:56:35;;;;;;;31.60;21.38;;;12.80;98.40;;;;;;4979400;28;20026;-73
2023/04/09 09:59:02;;;;;;;;;;;13.00;97.90;;;;;;4979902;28;20045;-74
2023/04/09 10:01:28;;;;;;;24.98;17.02;;;13.40;99.40;;;;;;4986352;28;20309;-74
2023/04/09 10:03:58;;;;;;;26.42;16.20;;;13.30;96.00;;;;;;4979544;28;20034;-75
2023/04/09 10:06:26;;;;;;;24.15;16.85;;;12.80;96.00;;;;;;4974673;28;20390;-74
2023/04/09 10:08:57;;;;;;;27.45;18.85;;;13.00;96.40;;;;;;4973550;28;20050;-73
2023/04/09 10:11:23;;;;;;;29.10;20.40;;;13.10;96.80;;;;;;4973565;28;20045;-73
2023/04/09 10:13:58;;;;;;;25.70;19.27;;;13.40;97.90;;;;;;4975663;28;20086;-75
2023/04/09 10:16:28;;;;;;;27.35;19.92;;;13.90;95.60;;;;;;4963698;28;20546;-76
2023/04/09 10:18:58;;;;;;;28.75;19.08;;;13.90;95.10;;;;;;4975553;28;20074;-74
2023/04/09 10:21:39;;;;;;;30.23;20.60;;;14.10;93.70;;;;;;4974715;28;20031;-75
2023/04/09 10:24:06;;;;;;;28.40;20.38;;;13.80;93.90;;;;;;4975657;28;20513;-75
2023/04/09 10:26:39;;;;;;;31.08;21.23;;;13.20;93.90;;;;;;4975027;28;20110;-75
2023/04/09 10:29:12;;;;;;;30.77;20.10;;;13.50;94.70;;;;;;4975054;28;20077;-74
2023/04/09 10:31:54;;;;;;;31.33;23.20;;;13.50;95.20;;;;;;4975391;28;20538;-75
2023/04/09 10:34:26;;;;;;;31.97;21.60;;;13.70;95.50;;;;;;4975169;28;20031;-74
2023/04/09 10:36:56;;;;;;;26.42;19.17;;;13.60;96.20;;;;;;4975373;28;20578;-74
2023/04/09 10:39:30;;;;;;;29.73;19.55;;;13.60;93.30;;;;;;4975158;28;20042;-74
2023/04/09 10:41:58;;;;;;;27.88;20.45;;;13.70;92.90;;;;;;4975008;28;20023;-75
2023/04/09 10:44:30;;;;;;;27.48;19.98;;;14.10;93.00;;;;;;4974583;28;20109;-76
2023/04/09 10:46:56;;;;;;;28.80;19.77;;;14.00;92.20;;;;;;4974617;28;20023;-75
2023/04/09 10:49:26;;;;;;;28.88;19.92;;;13.80;92.80;;;;;;4974383;28;20070;-75
2023/04/09 10:52:00;;;;;;;28.52;17.73;;;13.60;92.10;;;;;;4974551;28;20042;-76
2023/04/09 10:54:32;;;;;;;24.45;16.60;;;13.60;92.90;;;;;;4986599;28;20039;-74
2023/04/09 10:57:07;;;;;;;24.63;17.13;;;13.40;91.70;;;;;;4974906;28;20030;-74
2023/04/09 10:59:34;;;;;;;23.38;17.27;;;13.70;91.70;;;;;;4974425;28;20093;-75
2023/04/09 11:01:59;;;;;;;24.95;18.02;;;14.10;91.60;;;;;;4974022;28;20015;-72
2023/04/09 11:04:49;;;;;;;26.00;18.52;;;14.00;92.10;;;;;;4974849;28;20046;-74
2023/04/09 11:07:18;;;;;;;26.50;18.80;;;14.00;91.90;;;;;;4974376;28;20078;-75
2023/04/09 11:09:44;;;;;;;28.67;20.35;;;14.50;91.90;;;;;;4974781;28;20098;-74
2023/04/09 11:12:13;;;;;;;28.42;19.98;;;14.70;92.30;;;;;;4974431;28;20053;-74
2023/04/09 11:14:39;;;;;;;27.48;19.75;;;14.90;91.10;;;;;;4974486;28;20027;-73
2023/04/09 11:17:05;;;;;;;26.30;19.80;;;15.00;91.70;;;;;;4974271;28;20029;-74
2023/04/09 11:19:33;;;;;;;24.77;17.98;;;14.70;91.20;;;;;;4974327;28;20046;-74
2023/04/09 11:21:59;;;;;;;25.88;19.38;;;14.50;90.10;;;;;;4974403;28;20029;-74
2023/04/09 11:24:25;;;;;;;26.40;19.65;;;14.80;90.80;;;;;;4974077;28;20019;-74
2023/04/09 11:26:51;;;;;;;30.08;22.48;;;14.90;90.40;;;;;;4974329;28;20046;-75
2023/04/09 11:29:16;;;;;;;27.88;19.90;;;15.10;90.90;;;;;;4974119;28;20023;-75
2023/04/09 11:31:45;;;;;;;24.77;17.63;;;14.70;88.20;;;;;;4974390;28;20479;-74
2023/04/09 11:34:11;;;;;;;26.27;18.08;;;14.30;89.70;;;;;;4974089;28;20074;-75
2023/04/09 11:36:37;;;;;;;24.08;17.02;;;14.30;90.60;;;;;;4973528;28;20034;-74
2023/04/09 11:39:05;;;;;;;24.52;16.13;;;14.10;91.40;;;;;;4973928;28;20471;-75
2023/04/09 11:41:39;;;;;;;20.65;14.65;;;13.70;89.80;;;;;;4973608;28;20130;-76
2023/04/09 11:44:06;;;;;;;20.55;13.75;;;13.60;89.20;;;;;;4973240;28;20046;-75
2023/04/09 11:46:33;;;;;;;23.48;16.45;;;13.30;90.30;;;;;;4973339;28;20081;-75
2023/04/09 11:49:00;;;;;;;22.20;14.43;;;13.30;90.60;;;;;;4974071;28;20041;-75
2023/04/09 11:51:30;;;;;;;22.58;15.88;;;13.30;91.00;;;;;;4973640;28;20043;-74
2023/04/09 11:54:03;;;;;;;27.17;17.98;;;13.20;90.70;;;;;;4973730;28;20065;-75
2023/04/09 11:56:31;;;;;;;27.63;19.75;;;13.30;92.50;;;;;;4961380;28;20027;-76
2023/04/09 11:58:57;;;;;;;27.70;20.00;;;13.30;92.20;;;;;;4973365;28;20085;-76
2023/04/09 12:01:23;;;;;;;31.95;22.48;;;13.10;93.00;;;;;;4973641;28;20426;-75
2023/04/09 12:03:53;;;;;;;29.60;20.92;;;13.10;93.60;;;;;;4973267;28;20023;-74
2023/04/09 12:06:23;;;;;;;28.45;19.70;;;13.00;93.60;;;;;;4973807;28;20106;-75
2023/04/09 12:08:54;;;;;;;27.23;18.15;;;13.00;93.00;;;;;;4973177;28;20411;-75
2023/04/09 12:11:27;;;;;;;26.60;19.23;;;12.70;92.60;;;;;;4973089;28;20356;-75
2023/04/09 12:14:00;;;;;;;;;;;12.70;92.80;;;;;;4956556;28;20031;-76
2023/04/09 12:16:26;;;;;;;26.73;18.30;;;12.80;93.50;;;;;;4973048;28;19968;-75
2023/04/09 12:18:54;;;;;;;23.55;16.88;;;13.00;92.90;;;;;;4973288;28;20438;-76
2023/04/09 12:21:25;;;;;;;24.42;16.58;;;13.20;92.00;;;;;;4973175;28;20049;-74
2023/04/09 12:23:51;;;;;;;27.05;18.67;;;13.20;91.70;;;;;;4973006;28;20023;-74
2023/04/09 12:26:17;;;;;;;23.15;16.40;;;13.00;91.80;;;;;;4973243;28;20026;-76
2023/04/09 12:28:43;;;;;;;23.75;16.02;;;12.90;91.10;;;;;;4972916;28;20078;-75
2023/04/09 12:31:09;;;;;;;21.52;15.05;;;13.00;91.20;;;;;;4973226;28;20434;-77
2023/04/09 12:33:37;;;;;;;23.38;16.73;;;13.20;89.70;;;;;;4972906;28;20460;-75
2023/04/09 12:36:03;;;;;;;22.13;15.98;;;13.20;90.20;;;;;;4973240;28;20636;-75
2023/04/09 12:38:30;;;;;;;22.50;15.10;;;13.60;90.90;;;;;;4972917;28;20041;-75
2023/04/09 12:40:56;;;;;;;26.23;16.98;;;13.60;90.90;;;;;;4973313;28;20375;-75
2023/04/09 12:43:21;;;;;;;22.77;15.13;;;13.60;90.60;;;;;;4955503;28;20035;-73